createdAt,value
2023-10-30T00:00:21.230Z,100.00
2023-10-30T00:01:21.154Z,100.00
2023-10-30T00:02:21.109Z,100.00
2023-10-30T00:03:21.243Z,100.00
2023-10-30T00:04:21.216Z,100.00
2023-10-30T00:05:21.074Z,100.00
2023-10-30T00:06:21.140Z,100.00
2023-10-30T00:07:21.061Z,100.00
2023-10-30T00:08:21.058Z,100.00
2023-10-30T00:09:21.047Z,100.00
2023-10-30T00:10:21.033Z,100.00
2023-10-30T00:11:21.029Z,100.00
2023-10-30T00:12:21.060Z,100.00
2023-10-30T00:13:20.984Z,100.00
2023-10-30T00:14:20.977Z,100.00
2023-10-30T00:15:20.979Z,100.00
2023-10-30T00:16:20.968Z,100.00
2023-10-30T00:17:20.959Z,100.00
2023-10-30T00:18:20.964Z,100.00
2023-10-30T00:19:20.925Z,100.00
2023-10-30T00:20:20.917Z,100.00
2023-10-30T00:21:20.930Z,100.00
2023-10-30T00:22:20.890Z,100.00
2023-10-30T00:23:20.903Z,100.00
2023-10-30T00:24:20.903Z,100.00
2023-10-30T00:25:20.894Z,100.00
2023-10-30T00:26:20.852Z,100.00
2023-10-30T00:27:20.898Z,100.00
2023-10-30T00:28:20.859Z,100.00
2023-10-30T00:29:20.851Z,100.00
2023-10-30T00:30:20.870Z,100.00
2023-10-30T00:31:20.849Z,100.00
2023-10-30T00:32:20.800Z,100.00
2023-10-30T00:33:20.803Z,100.00
2023-10-30T00:34:20.781Z,100.00
2023-10-30T00:35:20.810Z,100.00
2023-10-30T00:36:20.814Z,100.00
2023-10-30T00:37:20.752Z,100.00
2023-10-30T00:38:20.735Z,100.00
2023-10-30T00:39:20.760Z,100.00
2023-10-30T00:40:20.729Z,100.00
2023-10-30T00:41:20.736Z,100.00
2023-10-30T00:42:20.746Z,100.00
2023-10-30T00:43:20.698Z,100.00
2023-10-30T00:44:20.666Z,100.00
2023-10-30T00:45:20.691Z,100.00
2023-10-30T00:46:20.679Z,100.00
2023-10-30T00:47:20.639Z,100.00
2023-10-30T00:48:20.655Z,100.00
2023-10-30T00:49:20.627Z,100.00
2023-10-30T00:50:20.613Z,100.00
2023-10-30T00:51:20.617Z,100.00
2023-10-30T00:52:20.622Z,100.00
2023-10-30T00:53:20.612Z,100.00
2023-10-30T00:54:20.619Z,100.00
2023-10-30T00:55:20.562Z,100.00
2023-10-30T00:56:20.553Z,100.00
2023-10-30T00:57:20.541Z,100.00
2023-10-30T00:58:20.542Z,100.00
2023-10-30T00:59:20.565Z,100.00
2023-10-30T01:00:20.513Z,100.00
2023-10-30T01:01:20.496Z,100.00
2023-10-30T01:02:20.653Z,100.00
2023-10-30T01:04:30.782Z,100.00
2023-10-30T01:05:31.661Z,100.00
2023-10-30T01:06:31.653Z,100.00
2023-10-30T01:07:31.634Z,100.00
2023-10-30T01:08:31.609Z,100.00
2023-10-30T01:09:31.746Z,100.00
2023-10-30T01:10:31.668Z,100.00
2023-10-30T01:11:31.602Z,100.00
2023-10-30T01:12:31.612Z,100.00
2023-10-30T01:13:31.594Z,100.00
2023-10-30T01:14:31.584Z,100.00
2023-10-30T01:15:31.576Z,100.00
2023-10-30T01:16:31.572Z,100.00
2023-10-30T01:17:31.529Z,100.00
2023-10-30T01:18:31.539Z,100.00
2023-10-30T01:19:31.517Z,100.00
2023-10-30T01:20:31.511Z,100.00
2023-10-30T01:21:31.534Z,100.00
2023-10-30T01:22:31.487Z,100.00
2023-10-30T01:23:31.471Z,100.00
2023-10-30T01:24:31.496Z,100.00
2023-10-30T01:25:31.458Z,100.00
2023-10-30T01:26:31.433Z,100.00
2023-10-30T01:27:31.497Z,100.00
2023-10-30T01:28:31.419Z,100.00
2023-10-30T01:29:31.407Z,100.00
2023-10-30T01:30:31.449Z,100.00
2023-10-30T01:31:31.379Z,100.00
2023-10-30T01:32:31.387Z,100.00
2023-10-30T01:33:31.426Z,100.00
2023-10-30T01:34:31.440Z,100.00
2023-10-30T01:35:31.371Z,100.00
2023-10-30T01:36:31.474Z,100.00
2023-10-30T01:37:31.325Z,100.00
2023-10-30T01:38:31.344Z,100.00
2023-10-30T01:39:31.381Z,100.00
2023-10-30T01:40:31.312Z,100.00
2023-10-30T01:41:31.280Z,100.00
2023-10-30T01:42:31.293Z,100.00
2023-10-30T01:43:31.292Z,100.00
2023-10-30T01:44:31.261Z,100.00
2023-10-30T01:45:31.259Z,100.00
2023-10-30T01:46:31.240Z,100.00
2023-10-30T01:47:31.218Z,100.00
2023-10-30T01:48:31.261Z,100.00
2023-10-30T01:49:31.229Z,99.94
2023-10-30T01:50:31.188Z,99.83
2023-10-30T01:51:31.239Z,99.60
2023-10-30T01:52:31.172Z,99.45
2023-10-30T01:53:31.184Z,99.40
2023-10-30T01:54:31.184Z,99.34
2023-10-30T01:55:31.155Z,99.28
2023-10-30T01:56:31.128Z,99.21
2023-10-30T01:57:31.158Z,99.33
2023-10-30T01:58:31.115Z,99.09
2023-10-30T01:59:31.091Z,98.42
2023-10-30T02:00:31.166Z,97.79
2023-10-30T02:01:31.151Z,97.47
2023-10-30T02:02:31.161Z,97.18
2023-10-30T02:03:31.214Z,97.05
2023-10-30T02:04:31.035Z,96.86
2023-10-30T02:05:31.086Z,96.57
2023-10-30T02:06:31.041Z,96.34
2023-10-30T02:07:31.006Z,96.38
2023-10-30T02:08:31.010Z,96.48
2023-10-30T02:09:31.037Z,95.55
2023-10-30T02:10:31.014Z,95.91
2023-10-30T02:11:30.971Z,96.84
2023-10-30T02:12:30.984Z,97.53
2023-10-30T02:13:30.947Z,98.24
2023-10-30T02:14:30.949Z,98.60
2023-10-30T02:15:31.001Z,98.63
2023-10-30T02:16:30.942Z,98.65
2023-10-30T02:17:31.004Z,98.56
2023-10-30T02:18:30.935Z,98.29
2023-10-30T02:19:30.883Z,98.03
2023-10-30T02:20:30.881Z,97.68
2023-10-30T02:21:30.854Z,97.07
2023-10-30T02:22:30.827Z,96.57
2023-10-30T02:23:30.859Z,96.30
2023-10-30T02:24:30.866Z,96.01
2023-10-30T02:25:30.821Z,95.91
2023-10-30T02:26:30.805Z,95.84
2023-10-30T02:27:30.858Z,95.91
2023-10-30T02:28:30.800Z,96.08
2023-10-30T02:29:30.805Z,96.22
2023-10-30T02:30:30.820Z,96.36
2023-10-30T02:31:30.762Z,96.51
2023-10-30T02:32:30.790Z,96.83
2023-10-30T02:33:30.841Z,96.89
2023-10-30T02:34:30.758Z,96.86
2023-10-30T02:35:30.749Z,96.91
2023-10-30T02:36:30.745Z,97.10
2023-10-30T02:37:30.687Z,97.16
2023-10-30T02:38:30.679Z,97.19
2023-10-30T02:39:30.717Z,97.38
2023-10-30T02:40:30.698Z,97.48
2023-10-30T02:41:30.641Z,97.14
2023-10-30T02:42:30.665Z,96.89
2023-10-30T02:43:30.640Z,96.76
2023-10-30T02:44:30.673Z,96.88
2023-10-30T02:45:30.690Z,96.70
2023-10-30T02:46:30.627Z,96.94
2023-10-30T02:47:30.603Z,96.73
2023-10-30T02:48:30.607Z,96.25
2023-10-30T02:49:30.559Z,95.78
2023-10-30T02:50:30.587Z,95.28
2023-10-30T02:51:30.546Z,94.81
2023-10-30T02:52:30.553Z,94.74
2023-10-30T02:53:30.525Z,94.39
2023-10-30T02:54:30.567Z,94.55
2023-10-30T02:55:30.526Z,95.04
2023-10-30T02:56:30.495Z,95.24
2023-10-30T02:57:30.507Z,95.17
2023-10-30T02:58:30.470Z,95.09
2023-10-30T02:59:30.456Z,95.04
2023-10-30T03:00:30.507Z,95.02
2023-10-30T03:01:30.469Z,94.96
2023-10-30T03:02:30.508Z,94.93
2023-10-30T03:03:30.588Z,94.87
2023-10-30T03:04:30.540Z,94.82
2023-10-30T03:05:30.391Z,94.70
2023-10-30T03:06:30.451Z,94.66
2023-10-30T03:07:30.403Z,94.51
2023-10-30T03:08:30.400Z,94.23
2023-10-30T03:09:30.388Z,94.30
2023-10-30T03:10:30.338Z,94.72
2023-10-30T03:11:30.337Z,95.30
2023-10-30T03:12:30.369Z,95.61
2023-10-30T03:13:30.344Z,95.99
2023-10-30T03:14:30.315Z,96.39
2023-10-30T03:15:30.321Z,96.32
2023-10-30T03:16:30.330Z,96.47
2023-10-30T03:17:30.415Z,96.67
2023-10-30T03:18:30.290Z,97.02
2023-10-30T03:19:30.274Z,97.26
2023-10-30T03:20:30.244Z,97.29
2023-10-30T03:21:30.250Z,97.24
2023-10-30T03:22:30.226Z,97.19
2023-10-30T03:23:30.223Z,97.12
2023-10-30T03:24:30.270Z,97.12
2023-10-30T03:25:30.228Z,97.12
2023-10-30T03:26:30.189Z,97.22
2023-10-30T03:27:30.195Z,97.12
2023-10-30T03:28:30.148Z,96.87
2023-10-30T03:29:30.176Z,96.93
2023-10-30T03:30:30.234Z,97.16
2023-10-30T03:31:30.237Z,97.41
2023-10-30T03:32:30.155Z,97.53
2023-10-30T03:33:30.177Z,97.63
2023-10-30T03:34:30.132Z,97.78
2023-10-30T03:35:30.105Z,97.97
2023-10-30T03:36:30.251Z,98.12
2023-10-30T03:37:30.130Z,98.38
2023-10-30T03:38:30.072Z,98.57
2023-10-30T03:39:30.078Z,98.64
2023-10-30T03:40:30.035Z,98.69
2023-10-30T03:41:30.021Z,98.68
2023-10-30T03:42:30.066Z,98.72
2023-10-30T03:43:30.007Z,98.80
2023-10-30T03:44:29.982Z,98.89
2023-10-30T03:45:30.021Z,99.05
2023-10-30T03:46:30.044Z,99.06
2023-10-30T03:47:30.039Z,98.86
2023-10-30T03:48:29.997Z,98.84
2023-10-30T03:49:29.952Z,99.03
2023-10-30T03:50:29.933Z,99.20
2023-10-30T03:51:29.934Z,99.38
2023-10-30T03:52:29.900Z,99.47
2023-10-30T03:53:29.895Z,99.51
2023-10-30T03:54:29.926Z,99.59
2023-10-30T03:55:29.893Z,99.68
2023-10-30T03:56:29.896Z,99.79
2023-10-30T03:57:29.868Z,99.90
2023-10-30T03:58:29.847Z,99.93
2023-10-30T03:59:29.823Z,99.98
2023-10-30T04:00:29.964Z,100.00
2023-10-30T04:01:29.838Z,100.00
2023-10-30T04:02:29.841Z,99.98
2023-10-30T04:03:29.858Z,99.96
2023-10-30T04:04:29.836Z,99.97
2023-10-30T04:05:29.765Z,100.00
2023-10-30T04:06:29.805Z,100.00
2023-10-30T04:07:29.780Z,99.95
2023-10-30T04:08:29.727Z,99.87
2023-10-30T04:09:29.797Z,99.76
2023-10-30T04:10:29.704Z,99.60
2023-10-30T04:11:29.694Z,99.54
2023-10-30T04:12:29.745Z,99.53
2023-10-30T04:13:29.728Z,99.50
2023-10-30T04:14:29.674Z,99.62
2023-10-30T04:15:29.688Z,99.64
2023-10-30T04:16:29.689Z,99.64
2023-10-30T04:17:29.685Z,99.66
2023-10-30T04:18:29.662Z,99.66
2023-10-30T04:19:29.646Z,99.66
2023-10-30T04:20:29.613Z,99.60
2023-10-30T04:21:29.676Z,99.56
2023-10-30T04:22:29.588Z,99.45
2023-10-30T04:23:29.599Z,99.27
2023-10-30T04:24:29.600Z,98.95
2023-10-30T04:25:29.617Z,98.51
2023-10-30T04:26:29.570Z,97.99
2023-10-30T04:27:29.564Z,97.47
2023-10-30T04:28:29.545Z,97.07
2023-10-30T04:29:29.538Z,97.03
2023-10-30T04:30:29.532Z,97.23
2023-10-30T04:31:29.561Z,97.50
2023-10-30T04:32:29.627Z,97.66
2023-10-30T04:33:29.472Z,97.83
2023-10-30T04:34:29.462Z,97.97
2023-10-30T04:35:29.458Z,98.02
2023-10-30T04:36:29.491Z,97.99
2023-10-30T04:37:29.440Z,97.94
2023-10-30T04:38:29.433Z,97.99
2023-10-30T04:39:29.427Z,98.15
2023-10-30T04:40:29.412Z,98.43
2023-10-30T04:41:29.419Z,98.60
2023-10-30T04:42:29.406Z,98.75
2023-10-30T04:43:29.385Z,98.88
2023-10-30T04:44:29.369Z,98.99
2023-10-30T04:45:29.406Z,99.15
2023-10-30T04:46:29.405Z,99.05
2023-10-30T04:47:29.396Z,99.05
2023-10-30T04:48:29.349Z,99.15
2023-10-30T04:49:29.325Z,99.30
2023-10-30T04:50:29.312Z,99.45
2023-10-30T04:51:29.326Z,99.52
2023-10-30T04:52:29.330Z,99.53
2023-10-30T04:53:29.264Z,99.48
2023-10-30T04:54:29.305Z,99.38
2023-10-30T04:55:29.284Z,99.29
2023-10-30T04:56:29.264Z,99.25
2023-10-30T04:57:29.280Z,99.27
2023-10-30T04:58:29.264Z,99.33
2023-10-30T04:59:29.241Z,99.43
2023-10-30T05:00:29.275Z,99.53
2023-10-30T05:01:29.249Z,99.61
2023-10-30T05:02:29.194Z,99.65
2023-10-30T05:03:29.206Z,99.67
2023-10-30T05:04:29.266Z,99.76
2023-10-30T05:05:29.142Z,99.84
2023-10-30T05:06:29.194Z,99.94
2023-10-30T05:07:29.150Z,100.00
2023-10-30T05:08:29.113Z,100.00
2023-10-30T05:09:29.191Z,100.00
2023-10-30T05:10:29.107Z,100.00
2023-10-30T05:11:29.078Z,100.00
2023-10-30T05:12:29.086Z,100.00
2023-10-30T05:13:29.059Z,100.00
2023-10-30T05:14:29.050Z,100.00
2023-10-30T05:15:29.119Z,100.00
2023-10-30T05:16:29.078Z,100.00
2023-10-30T05:17:29.084Z,100.00
2023-10-30T05:18:29.028Z,100.00
2023-10-30T05:19:28.990Z,100.00
2023-10-30T05:20:28.989Z,100.00
2023-10-30T05:21:29.019Z,100.00
2023-10-30T05:22:28.999Z,100.00
2023-10-30T05:23:28.962Z,100.00
2023-10-30T05:24:29.037Z,100.00
2023-10-30T05:25:39.508Z,100.00
2023-10-30T05:26:28.934Z,100.00
2023-10-30T05:27:28.986Z,100.00
2023-10-30T05:28:28.930Z,100.00
2023-10-30T05:29:28.910Z,100.00
2023-10-30T05:30:29.008Z,100.00
2023-10-30T05:31:28.925Z,100.00
2023-10-30T05:32:28.913Z,100.00
2023-10-30T05:33:28.882Z,100.00
2023-10-30T05:34:28.854Z,100.00
2023-10-30T05:35:28.850Z,100.00
2023-10-30T05:36:28.873Z,100.00
2023-10-30T05:37:28.822Z,100.00
2023-10-30T05:38:28.799Z,100.00
2023-10-30T05:39:28.831Z,100.00
2023-10-30T05:40:28.783Z,100.00
2023-10-30T05:41:28.804Z,100.00
2023-10-30T05:42:28.793Z,100.00
2023-10-30T05:43:28.755Z,100.00
2023-10-30T05:44:28.748Z,100.00
2023-10-30T05:45:28.746Z,100.00
2023-10-30T05:46:28.785Z,100.00
2023-10-30T05:47:28.765Z,100.00
2023-10-30T05:48:28.745Z,100.00
2023-10-30T05:49:28.715Z,100.00
2023-10-30T05:50:28.679Z,100.00
2023-10-30T05:51:28.712Z,100.00
2023-10-30T05:52:28.662Z,100.00
2023-10-30T05:53:28.674Z,100.00
2023-10-30T05:54:28.658Z,100.00
2023-10-30T05:55:28.645Z,100.00
2023-10-30T05:56:28.629Z,100.00
2023-10-30T05:57:28.631Z,100.00
2023-10-30T05:58:28.635Z,100.00
2023-10-30T05:59:28.614Z,100.00
2023-10-30T06:00:28.623Z,100.00
2023-10-30T06:01:28.605Z,100.00
2023-10-30T06:02:28.600Z,100.00
2023-10-30T06:03:28.664Z,100.00
2023-10-30T06:04:28.605Z,100.00
2023-10-30T06:05:28.539Z,100.00
2023-10-30T06:06:28.550Z,100.00
2023-10-30T06:07:28.519Z,100.00
2023-10-30T06:08:28.508Z,100.00
2023-10-30T06:09:28.578Z,100.00
2023-10-30T06:10:28.528Z,100.00
2023-10-30T06:11:28.501Z,100.00
2023-10-30T06:12:28.486Z,100.00
2023-10-30T06:13:28.466Z,100.00
2023-10-30T06:14:28.458Z,100.00
2023-10-30T06:15:28.476Z,100.00
2023-10-30T06:16:28.459Z,100.00
2023-10-30T06:17:28.492Z,100.00
2023-10-30T06:18:28.471Z,100.00
2023-10-30T06:19:28.402Z,100.00
2023-10-30T06:20:28.399Z,100.00
2023-10-30T06:21:28.410Z,100.00
2023-10-30T06:22:29.856Z,100.00
2023-10-30T06:23:28.387Z,99.28
2023-10-30T06:24:28.371Z,98.47
2023-10-30T06:25:28.335Z,97.90
2023-10-30T06:26:28.328Z,97.72
2023-10-30T06:27:28.437Z,97.27
2023-10-30T06:28:28.300Z,97.04
2023-10-30T06:29:28.320Z,97.01
2023-10-30T06:30:28.322Z,97.00
2023-10-30T06:31:28.272Z,97.04
2023-10-30T06:32:28.357Z,96.91
2023-10-30T06:33:28.403Z,96.94
2023-10-30T06:34:28.246Z,97.02
2023-10-30T06:35:28.276Z,97.17
2023-10-30T06:36:28.374Z,97.26
2023-10-30T06:37:28.344Z,97.44
2023-10-30T06:38:28.274Z,97.60
2023-10-30T06:39:28.293Z,97.69
2023-10-30T06:40:28.225Z,97.78
2023-10-30T06:41:28.179Z,97.86
2023-10-30T06:42:28.237Z,97.92
2023-10-30T06:43:28.146Z,98.00
2023-10-30T06:44:28.141Z,98.09
2023-10-30T06:45:28.173Z,98.17
2023-10-30T06:46:28.137Z,98.28
2023-10-30T06:47:28.148Z,98.36
2023-10-30T06:48:28.172Z,98.36
2023-10-30T06:49:28.106Z,98.39
2023-10-30T06:50:28.092Z,98.45
2023-10-30T06:51:28.078Z,98.55
2023-10-30T06:52:28.069Z,98.79
2023-10-30T06:53:28.061Z,99.00
2023-10-30T06:54:28.098Z,99.19
2023-10-30T06:55:28.083Z,99.31
2023-10-30T06:56:28.020Z,99.40
2023-10-30T06:57:28.045Z,99.50
2023-10-30T06:58:28.010Z,99.52
2023-10-30T06:59:27.988Z,99.56
2023-10-30T07:00:28.094Z,99.58
2023-10-30T07:01:28.032Z,99.58
2023-10-30T07:02:27.973Z,99.60
2023-10-30T07:03:28.068Z,99.62
2023-10-30T07:04:28.058Z,99.61
2023-10-30T07:05:27.919Z,99.58
2023-10-30T07:06:27.991Z,99.54
2023-10-30T07:07:27.910Z,99.50
2023-10-30T07:08:27.943Z,99.45
2023-10-30T07:09:28.026Z,99.45
2023-10-30T07:10:27.862Z,99.43
2023-10-30T07:11:27.849Z,99.39
2023-10-30T07:12:27.898Z,99.33
2023-10-30T07:13:27.839Z,99.26
2023-10-30T07:14:27.865Z,99.19
2023-10-30T07:15:27.881Z,99.09
2023-10-30T07:16:27.837Z,99.00
2023-10-30T07:17:27.847Z,98.85
2023-10-30T07:18:27.899Z,98.77
2023-10-30T07:19:27.806Z,98.71
2023-10-30T07:20:27.782Z,98.72
2023-10-30T07:21:27.770Z,98.72
2023-10-30T07:22:27.778Z,98.75
2023-10-30T07:23:27.738Z,98.75
2023-10-30T07:24:27.803Z,98.67
2023-10-30T07:25:27.746Z,98.66
2023-10-30T07:26:27.707Z,98.75
2023-10-30T07:27:27.733Z,98.73
2023-10-30T07:28:27.731Z,98.66
2023-10-30T07:29:27.689Z,98.59
2023-10-30T07:30:27.693Z,98.56
2023-10-30T07:31:27.775Z,98.55
2023-10-30T07:32:27.642Z,98.54
2023-10-30T07:33:27.665Z,98.52
2023-10-30T07:34:27.610Z,98.50
2023-10-30T07:35:27.609Z,98.47
2023-10-30T07:36:27.652Z,98.45
2023-10-30T07:37:27.583Z,98.44
2023-10-30T07:38:27.563Z,98.40
2023-10-30T07:39:27.640Z,98.29
2023-10-30T07:40:27.616Z,98.21
2023-10-30T07:41:27.530Z,98.06
2023-10-30T07:42:27.578Z,97.91
2023-10-30T07:43:27.505Z,97.81
2023-10-30T07:44:27.507Z,97.75
2023-10-30T07:45:27.585Z,97.67
2023-10-30T07:46:27.529Z,97.62
2023-10-30T07:47:42.738Z,97.55
2023-10-30T07:48:27.602Z,97.19
2023-10-30T07:49:27.464Z,97.03
2023-10-30T07:50:27.448Z,97.30
2023-10-30T07:51:27.467Z,96.66
2023-10-30T07:52:27.426Z,95.17
2023-10-30T07:53:27.444Z,93.88
2023-10-30T07:54:27.441Z,92.87
2023-10-30T07:55:27.405Z,92.31
2023-10-30T07:56:27.389Z,90.77
2023-10-30T07:57:27.382Z,89.37
2023-10-30T07:58:27.344Z,86.97
2023-10-30T07:59:27.375Z,87.18
2023-10-30T08:00:27.388Z,85.92
2023-10-30T08:01:27.365Z,86.80
2023-10-30T08:02:27.403Z,87.50
2023-10-30T08:03:27.428Z,85.49
2023-10-30T08:04:27.453Z,84.74
2023-10-30T08:05:27.329Z,84.63
2023-10-30T08:06:27.298Z,84.03
2023-10-30T08:07:27.284Z,82.91
2023-10-30T08:08:27.278Z,82.44
2023-10-30T08:09:27.268Z,82.26
2023-10-30T08:10:27.317Z,81.69
2023-10-30T08:11:27.230Z,80.51
2023-10-30T08:12:27.241Z,79.83
2023-10-30T08:13:27.215Z,80.43
2023-10-30T08:14:27.197Z,81.25
2023-10-30T08:15:27.310Z,81.55
2023-10-30T08:16:27.223Z,82.59
2023-10-30T08:17:27.215Z,83.65
2023-10-30T08:18:27.186Z,85.12
2023-10-30T08:19:27.142Z,85.48
2023-10-30T08:20:27.134Z,85.95
2023-10-30T08:21:27.171Z,85.80
2023-10-30T08:22:27.128Z,86.21
2023-10-30T08:23:27.135Z,85.75
2023-10-30T08:24:27.109Z,85.79
2023-10-30T08:25:27.181Z,85.58
2023-10-30T08:26:27.086Z,84.51
2023-10-30T08:27:27.108Z,84.13
2023-10-30T08:28:27.057Z,83.79
2023-10-30T08:29:27.095Z,83.71
2023-10-30T08:30:27.056Z,82.56
2023-10-30T08:31:27.075Z,81.91
2023-10-30T08:32:27.081Z,82.04
2023-10-30T08:33:27.039Z,80.12
2023-10-30T08:34:27.017Z,80.01
2023-10-30T08:35:27.014Z,78.01
2023-10-30T08:36:26.994Z,78.04
2023-10-30T08:37:26.990Z,77.84
2023-10-30T08:38:26.956Z,77.94
2023-10-30T08:39:26.971Z,77.61
2023-10-30T08:40:26.947Z,78.32
2023-10-30T08:41:26.942Z,78.88
2023-10-30T08:42:26.967Z,78.09
2023-10-30T08:43:26.889Z,78.94
2023-10-30T08:44:29.207Z,79.73
2023-10-30T08:45:26.912Z,80.01
2023-10-30T08:46:26.918Z,80.58
2023-10-30T08:47:26.919Z,80.45
2023-10-30T08:48:26.914Z,79.29
2023-10-30T08:49:26.813Z,77.20
2023-10-30T08:50:26.844Z,75.97
2023-10-30T08:51:26.830Z,76.28
2023-10-30T08:52:26.827Z,75.59
2023-10-30T08:53:26.844Z,75.21
2023-10-30T08:54:26.806Z,74.59
2023-10-30T08:55:26.820Z,74.72
2023-10-30T08:56:26.762Z,73.50
2023-10-30T08:57:26.788Z,73.40
2023-10-30T08:58:26.738Z,72.49
2023-10-30T08:59:26.729Z,73.11
2023-10-30T09:00:26.771Z,73.44
2023-10-30T09:01:26.699Z,74.07
2023-10-30T09:02:26.794Z,73.66
2023-10-30T09:03:26.811Z,75.79
2023-10-30T09:04:26.838Z,77.65
2023-10-30T09:05:26.886Z,78.47
2023-10-30T09:06:26.758Z,79.21
2023-10-30T09:07:26.649Z,78.11
2023-10-30T09:08:26.640Z,78.14
2023-10-30T09:09:26.635Z,76.42
2023-10-30T09:10:26.611Z,73.50
2023-10-30T09:11:26.629Z,73.29
2023-10-30T09:12:26.652Z,73.27
2023-10-30T09:13:26.586Z,73.63
2023-10-30T09:14:26.811Z,74.78
2023-10-30T09:15:26.606Z,73.63
2023-10-30T09:16:26.579Z,73.23
2023-10-30T09:17:26.556Z,72.45
2023-10-30T09:18:26.645Z,72.60
2023-10-30T09:19:26.517Z,72.19
2023-10-30T09:20:26.522Z,72.84
2023-10-30T09:21:26.509Z,71.47
2023-10-30T09:22:26.454Z,71.49
2023-10-30T09:23:26.462Z,72.44
2023-10-30T09:24:26.537Z,72.60
2023-10-30T09:25:26.447Z,72.13
2023-10-30T09:26:26.441Z,71.59
2023-10-30T09:27:26.534Z,71.67
2023-10-30T09:28:26.483Z,72.49
2023-10-30T09:29:26.451Z,70.71
2023-10-30T09:30:26.439Z,71.05
2023-10-30T09:31:26.418Z,71.94
2023-10-30T09:32:26.366Z,71.85
2023-10-30T09:33:26.368Z,72.55
2023-10-30T09:34:26.481Z,72.24
2023-10-30T09:35:26.349Z,73.17
2023-10-30T09:36:26.392Z,72.68
2023-10-30T09:37:26.322Z,72.58
2023-10-30T09:38:26.319Z,73.24
2023-10-30T09:39:26.334Z,71.90
2023-10-30T09:40:26.298Z,71.22
2023-10-30T09:41:26.292Z,70.92
2023-10-30T09:42:26.367Z,70.38
2023-10-30T09:43:26.247Z,70.18
2023-10-30T09:44:26.352Z,70.54
2023-10-30T09:45:26.284Z,71.91
2023-10-30T09:46:26.286Z,70.78
2023-10-30T09:47:26.222Z,72.75
2023-10-30T09:48:26.284Z,73.22
2023-10-30T09:49:26.194Z,72.44
2023-10-30T09:50:26.198Z,70.96
2023-10-30T09:51:26.204Z,71.54
2023-10-30T09:52:26.166Z,71.88
2023-10-30T09:53:26.143Z,71.73
2023-10-30T09:54:26.213Z,71.70
2023-10-30T09:55:26.149Z,71.60
2023-10-30T09:56:26.124Z,72.41
2023-10-30T09:57:26.131Z,71.93
2023-10-30T09:58:26.108Z,72.31
2023-10-30T09:59:26.092Z,71.35
2023-10-30T10:00:26.160Z,71.31
2023-10-30T10:01:26.254Z,73.01
2023-10-30T10:02:26.106Z,73.26
2023-10-30T10:03:26.181Z,73.58
2023-10-30T10:04:26.238Z,73.33
2023-10-30T10:05:26.033Z,74.03
2023-10-30T10:06:26.105Z,74.42
2023-10-30T10:07:26.024Z,75.13
2023-10-30T10:08:26.009Z,75.75
2023-10-30T10:09:26.038Z,74.86
2023-10-30T10:10:25.974Z,73.06
2023-10-30T10:11:25.971Z,72.03
2023-10-30T10:12:26.069Z,72.43
2023-10-30T10:13:26.071Z,72.85
2023-10-30T10:14:26.077Z,72.01
2023-10-30T10:15:25.963Z,70.80
2023-10-30T10:16:25.938Z,71.83
2023-10-30T10:17:25.900Z,72.14
2023-10-30T10:18:25.968Z,72.79
2023-10-30T10:19:25.895Z,72.53
2023-10-30T10:20:25.872Z,73.52
2023-10-30T10:21:25.906Z,73.14
2023-10-30T10:22:26.764Z,74.51
2023-10-30T10:23:25.863Z,75.54
2023-10-30T10:24:25.828Z,75.15
2023-10-30T10:25:25.816Z,76.22
2023-10-30T10:26:25.824Z,76.71
2023-10-30T10:27:25.814Z,76.98
2023-10-30T10:28:25.811Z,76.22
2023-10-30T10:29:25.802Z,76.78
2023-10-30T10:31:20.252Z,78.05
2023-10-30T10:31:25.772Z,77.89
2023-10-30T10:32:25.734Z,78.32
2023-10-30T10:33:25.923Z,78.50
2023-10-30T10:34:25.779Z,78.62
2023-10-30T10:35:25.697Z,78.28
2023-10-30T10:36:25.712Z,78.78
2023-10-30T10:37:25.709Z,78.99
2023-10-30T10:38:25.685Z,79.21
2023-10-30T10:39:25.726Z,78.90
2023-10-30T10:40:25.649Z,79.22
2023-10-30T10:41:25.654Z,79.89
2023-10-30T10:42:25.679Z,80.54
2023-10-30T10:43:25.654Z,81.15
2023-10-30T10:44:25.675Z,80.43
2023-10-30T10:45:25.605Z,80.51
2023-10-30T10:46:25.693Z,80.92
2023-10-30T10:47:25.617Z,79.28
2023-10-30T10:48:25.620Z,78.70
2023-10-30T10:49:25.561Z,79.12
2023-10-30T10:50:25.600Z,79.23
2023-10-30T10:51:25.573Z,78.26
2023-10-30T10:52:27.029Z,78.25
2023-10-30T10:53:25.516Z,78.68
2023-10-30T10:54:25.542Z,77.20
2023-10-30T10:55:25.528Z,75.37
2023-10-30T10:56:25.555Z,75.43
2023-10-30T10:57:25.488Z,76.99
2023-10-30T10:58:26.781Z,76.87
2023-10-30T10:59:25.454Z,76.85
2023-10-30T11:00:25.453Z,76.24
2023-10-30T11:01:25.470Z,77.67
2023-10-30T11:02:25.502Z,78.17
2023-10-30T11:03:25.443Z,76.92
2023-10-30T11:04:25.540Z,76.92
2023-10-30T11:05:25.405Z,75.82
2023-10-30T11:06:25.433Z,77.02
2023-10-30T11:07:25.369Z,76.55
2023-10-30T11:08:25.377Z,75.60
2023-10-30T11:09:25.387Z,75.70
2023-10-30T11:10:25.375Z,73.80
2023-10-30T11:11:25.332Z,73.23
2023-10-30T11:12:25.329Z,73.30
2023-10-30T11:13:25.307Z,71.63
2023-10-30T11:14:25.319Z,70.56
2023-10-30T11:15:25.329Z,70.54
2023-10-30T11:16:25.432Z,68.74
2023-10-30T11:17:25.249Z,68.98
2023-10-30T11:18:25.344Z,68.58
2023-10-30T11:19:25.254Z,68.41
2023-10-30T11:20:25.249Z,68.51
2023-10-30T11:21:25.272Z,69.12
2023-10-30T11:22:25.261Z,69.54
2023-10-30T11:23:25.196Z,70.51
2023-10-30T11:24:25.211Z,70.98
2023-10-30T11:25:25.202Z,71.16
2023-10-30T11:26:25.206Z,71.81
2023-10-30T11:27:25.181Z,71.87
2023-10-30T11:28:25.146Z,71.94
2023-10-30T11:29:25.128Z,72.64
2023-10-30T11:30:25.155Z,73.08
2023-10-30T11:31:25.099Z,74.66
2023-10-30T11:32:25.132Z,75.31
2023-10-30T11:33:25.092Z,76.08
2023-10-30T11:34:25.091Z,76.43
2023-10-30T11:35:25.055Z,77.20
2023-10-30T11:36:25.139Z,78.03
2023-10-30T11:37:25.040Z,78.81
2023-10-30T11:38:25.077Z,79.44
2023-10-30T11:39:25.084Z,79.10
2023-10-30T11:40:25.032Z,79.30
2023-10-30T11:41:25.022Z,79.12
2023-10-30T11:42:25.037Z,79.22
2023-10-30T11:43:24.988Z,79.38
2023-10-30T11:44:25.019Z,79.54
2023-10-30T11:45:25.015Z,80.22
2023-10-30T11:46:25.021Z,80.75
2023-10-30T11:47:24.923Z,80.66
2023-10-30T11:48:24.936Z,80.35
2023-10-30T11:49:24.896Z,80.80
2023-10-30T11:50:24.929Z,81.04
2023-10-30T11:51:24.938Z,81.56
2023-10-30T11:52:24.890Z,81.97
2023-10-30T11:53:24.898Z,82.02
2023-10-30T11:54:24.880Z,82.75
2023-10-30T11:55:24.867Z,83.60
2023-10-30T11:56:24.881Z,83.35
2023-10-30T11:57:24.890Z,83.41
2023-10-30T11:58:24.861Z,83.68
2023-10-30T11:59:24.845Z,83.86
2023-10-30T12:00:26.431Z,84.45
2023-10-30T12:01:32.660Z,84.20
2023-10-30T12:02:33.443Z,84.46
2023-10-30T12:03:24.809Z,84.70
2023-10-30T12:04:24.842Z,84.71
2023-10-30T12:05:24.778Z,84.72
2023-10-30T12:06:24.795Z,84.99
2023-10-30T12:07:24.779Z,85.09
2023-10-30T12:08:24.726Z,85.68
2023-10-30T12:09:24.756Z,85.68
2023-10-30T12:10:24.711Z,86.57
2023-10-30T12:11:24.726Z,86.49
2023-10-30T12:12:24.727Z,86.51
2023-10-30T12:13:24.720Z,86.86
2023-10-30T12:14:24.693Z,86.84
2023-10-30T12:15:24.698Z,86.66
2023-10-30T12:16:24.669Z,86.42
2023-10-30T12:17:24.640Z,86.73
2023-10-30T12:18:24.758Z,87.41
2023-10-30T12:21:41.045Z,87.94
2023-10-30T12:22:41.965Z,89.14
2023-10-30T12:23:41.955Z,89.36
2023-10-30T12:24:41.981Z,89.71
2023-10-30T12:25:41.978Z,89.72
2023-10-30T12:26:41.926Z,89.43
2023-10-30T12:27:41.926Z,89.42
2023-10-30T12:28:41.898Z,90.00
2023-10-30T12:29:41.896Z,90.08
2023-10-30T12:30:41.966Z,90.30
2023-10-30T12:31:41.942Z,90.59
2023-10-30T12:32:41.877Z,90.69
2023-10-30T12:33:41.916Z,90.89
2023-10-30T12:34:41.866Z,90.90
2023-10-30T12:35:41.815Z,91.03
2023-10-30T12:36:41.897Z,91.18
2023-10-30T12:37:41.804Z,91.26
2023-10-30T12:38:41.827Z,91.34
2023-10-30T12:39:41.858Z,91.40
2023-10-30T12:40:41.775Z,91.30
2023-10-30T12:41:41.831Z,91.36
2023-10-30T12:42:41.840Z,91.30
2023-10-30T12:43:41.758Z,91.13
2023-10-30T12:44:41.743Z,90.76
2023-10-30T12:45:41.738Z,90.81
2023-10-30T12:46:41.714Z,91.04
2023-10-30T12:47:41.779Z,91.02
2023-10-30T12:48:41.747Z,90.87
2023-10-30T12:49:41.687Z,90.72